Time;durP1;ratioP1;P1;durP2;ratioP2;P2;SDS_P1;SDS_P2;PMS_P1;PMS_P2;Temp;Humidity;BMP_temperature;BMP_pressure;BME280_temperature;BME280_humidity;BME280_pressure;Samples;Min_cycle;Max_cycle;Signal;HPM_P1;HPM_P2
2022/03/21 00:01:51;;;;;;;52.38;41.03;;;5.40;99.90;;;;;;5101333;27;20040;-67
2022/03/21 00:04:17;;;;;;;50.70;41.38;;;5.40;99.90;;;;;;5103138;27;20036;-67
2022/03/21 00:06:43;;;;;;;49.65;38.80;;;5.40;99.90;;;;;;5102691;28;20070;-67
2022/03/21 00:09:08;;;;;;;45.25;37.08;;;5.40;99.90;;;;;;5094511;27;20071;-67
2022/03/21 00:11:34;;;;;;;47.20;38.42;;;5.40;99.90;;;;;;5097443;28;20031;-67
2022/03/21 00:14:00;;;;;;;45.83;36.13;;;5.40;99.90;;;;;;5099577;27;20031;-67
2022/03/21 00:16:26;;;;;;;45.05;36.40;;;5.50;99.90;;;;;;5100400;27;20462;-67
2022/03/21 00:18:52;;;;;;;47.88;37.47;;;5.40;99.90;;;;;;5099565;28;21532;-67
2022/03/21 00:21:18;;;;;;;59.72;43.63;;;5.40;99.90;;;;;;5100004;27;20048;-67
2022/03/21 00:23:44;;;;;;;51.17;41.85;;;5.50;99.90;;;;;;5096703;28;20035;-67
2022/03/21 00:26:10;;;;;;;56.75;43.50;;;5.50;99.90;;;;;;5096015;27;20039;-67
2022/03/21 00:28:35;;;;;;;50.88;41.15;;;5.50;99.90;;;;;;5097315;27;20046;-67
2022/03/21 00:31:02;;;;;;;49.75;37.90;;;5.50;99.90;;;;;;5128742;27;20056;-67
2022/03/21 00:33:28;;;;;;;51.05;39.40;;;5.60;99.90;;;;;;5099782;28;20036;-67
2022/03/21 00:35:53;;;;;;;49.80;42.35;;;5.60;99.90;;;;;;5100303;27;20104;-67
2022/03/21 00:38:20;;;;;;;47.30;38.95;;;5.50;99.90;;;;;;5098155;27;20650;-67
2022/03/21 00:40:46;;;;;;;47.83;39.30;;;5.60;99.90;;;;;;5096218;27;20051;-67
2022/03/21 00:43:30;;;;;;;44.20;37.50;;;5.50;99.90;;;;;;5096293;28;20039;-68
2022/03/21 00:45:57;;;;;;;49.80;38.95;;;5.60;99.90;;;;;;5094322;28;20254;-67
2022/03/21 00:48:24;;;;;;;47.67;37.85;;;5.50;99.90;;;;;;5099942;28;20040;-67
2022/03/21 00:50:51;;;;;;;48.35;39.35;;;5.60;99.90;;;;;;5129149;27;20545;-67
2022/03/21 00:53:17;;;;;;;53.08;41.75;;;5.50;99.90;;;;;;5134487;27;20040;-67
2022/03/21 00:55:43;;;;;;;48.65;40.25;;;5.50;99.90;;;;;;5097971;28;20115;-67
2022/03/21 00:58:09;;;;;;;48.15;37.75;;;5.50;99.90;;;;;;5097078;28;20035;-67
2022/03/21 01:00:35;;;;;;;50.03;39.70;;;5.50;99.90;;;;;;5096964;28;20032;-67
2022/03/21 01:03:02;;;;;;;48.35;40.38;;;5.40;99.90;;;;;;5096616;28;20123;-67
2022/03/21 01:05:28;;;;;;;52.63;41.90;;;5.40;99.90;;;;;;5096932;27;20067;-67
2022/03/21 01:07:55;;;;;;;54.60;41.50;;;5.40;99.90;;;;;;5094830;28;20043;-67
2022/03/21 01:10:22;;;;;;;51.10;41.15;;;5.40;99.90;;;;;;5095420;27;20440;-67
2022/03/21 01:12:50;;;;;;;45.38;38.83;;;5.50;99.90;;;;;;5095781;28;20079;-67
2022/03/21 01:15:18;;;;;;;44.70;36.47;;;5.40;99.90;;;;;;5103663;28;20044;-67
2022/03/21 01:17:44;;;;;;;47.10;39.90;;;5.50;99.90;;;;;;5097452;28;20043;-67
2022/03/21 01:20:13;;;;;;;45.92;38.13;;;5.40;99.90;;;;;;5127318;27;20079;-66
2022/03/21 01:22:39;;;;;;;47.15;39.25;;;5.40;99.90;;;;;;5094889;28;20078;-66
2022/03/21 01:25:06;;;;;;;46.95;38.65;;;5.50;99.90;;;;;;5098525;28;20063;-67
2022/03/21 01:27:34;;;;;;;54.33;39.47;;;5.40;99.90;;;;;;5098549;28;20032;-67
2022/03/21 01:30:04;;;;;;;46.63;39.38;;;5.50;99.90;;;;;;5095165;28;20036;-67
2022/03/21 01:32:32;;;;;;;50.50;38.92;;;5.40;99.90;;;;;;5102454;28;20051;-67
2022/03/21 01:34:58;;;;;;;48.22;37.40;;;5.50;99.90;;;;;;5097447;28;20079;-67
2022/03/21 01:37:23;;;;;;;45.60;37.88;;;5.30;99.90;;;;;;5131502;27;20071;-66
2022/03/21 01:39:49;;;;;;;51.13;38.50;;;5.50;99.90;;;;;;5098824;28;20040;-67
2022/03/21 01:42:14;;;;;;;48.72;38.42;;;5.50;99.90;;;;;;5102175;28;20035;-67
2022/03/21 01:44:41;;;;;;;47.35;35.47;;;5.50;99.90;;;;;;5114960;27;20505;-67
2022/03/21 01:47:06;;;;;;;48.22;37.03;;;5.50;99.90;;;;;;5099340;28;20036;-67
2022/03/21 01:49:32;;;;;;;52.38;39.25;;;5.40;99.90;;;;;;5102477;27;20092;-67
2022/03/21 01:51:58;;;;;;;44.80;36.13;;;5.30;99.90;;;;;;5103934;28;20127;-67
2022/03/21 01:57:09;;;;;;;41.50;33.05;;;5.30;99.90;;;;;;5104565;28;20036;-67
2022/03/21 01:59:36;;;;;;;39.85;34.63;;;5.30;99.90;;;;;;5099795;28;20048;-67
2022/03/21 02:02:02;;;;;;;39.53;32.60;;;5.20;99.90;;;;;;5102777;28;20127;-67
2022/03/21 02:04:28;;;;;;;39.85;33.70;;;5.20;99.90;;;;;;5100770;28;20052;-67
2022/03/21 02:06:54;;;;;;;38.08;31.83;;;5.10;99.90;;;;;;5103922;27;20088;-67
2022/03/21 02:09:20;;;;;;;39.03;31.38;;;5.20;99.90;;;;;;5100301;28;20058;-67
2022/03/21 02:11:45;;;;;;;41.05;31.13;;;5.10;99.90;;;;;;5126487;27;20047;-67
2022/03/21 02:14:11;;;;;;;48.15;35.85;;;5.10;99.90;;;;;;5099157;27;20050;-67
2022/03/21 02:16:39;;;;;;;46.17;32.38;;;5.10;99.90;;;;;;5102647;27;20028;-67
2022/03/21 02:19:20;;;;;;;42.13;31.42;;;5.00;99.90;;;;;;5103441;28;20059;-66
2022/03/21 02:22:04;;;;;;;39.05;29.88;;;5.00;99.90;;;;;;5102993;27;20127;-66
2022/03/21 02:24:39;;;;;;;33.55;26.65;;;4.90;99.90;;;;;;5130466;27;20085;-66
2022/03/21 02:27:07;;;;;;;33.90;28.83;;;4.80;99.90;;;;;;5101295;28;20447;-66
2022/03/21 02:29:34;;;;;;;44.60;32.13;;;4.80;99.90;;;;;;5097904;27;20047;-66
2022/03/21 02:32:00;;;;;;;33.67;29.00;;;4.80;99.90;;;;;;5099462;28;20054;-67
2022/03/21 02:34:26;;;;;;;36.08;29.17;;;4.80;99.90;;;;;;5100436;27;20534;-67
2022/03/21 02:37:00;;;;;;;34.38;26.58;;;4.70;99.90;;;;;;5102104;28;20108;-67
2022/03/21 02:39:29;;;;;;;33.20;24.83;;;4.70;99.90;;;;;;5119253;27;20051;-67
2022/03/21 02:41:55;;;;;;;30.80;24.88;;;4.60;99.90;;;;;;5106062;28;20108;-66
2022/03/21 02:44:21;;;;;;;30.52;25.23;;;4.60;99.90;;;;;;5099561;28;20040;-66
2022/03/21 02:46:47;;;;;;;30.73;24.25;;;4.50;99.90;;;;;;5099030;27;20532;-66
2022/03/21 02:49:16;;;;;;;24.20;20.85;;;4.50;99.90;;;;;;5099614;27;20134;-67
2022/03/21 02:51:43;;;;;;;30.35;21.27;;;4.50;99.90;;;;;;5133855;27;20079;-66
2022/03/21 02:54:18;;;;;;;26.90;21.23;;;4.40;99.90;;;;;;5099904;28;20486;-66
2022/03/21 02:56:44;;;;;;;25.58;20.17;;;4.50;99.90;;;;;;5099890;27;20047;-66
2022/03/21 02:59:09;;;;;;;29.58;19.95;;;4.40;99.90;;;;;;5102826;27;20035;-67
2022/03/21 03:01:36;;;;;;;25.15;18.45;;;4.40;99.90;;;;;;5099479;28;20054;-67
2022/03/21 03:04:02;;;;;;;21.75;17.15;;;4.40;99.90;;;;;;5097787;27;20048;-66
2022/03/21 03:06:28;;;;;;;21.33;17.75;;;4.30;99.90;;;;;;5100499;27;20055;-66
2022/03/21 03:08:55;;;;;;;23.85;16.75;;;4.30;99.90;;;;;;5094726;27;20482;-66
2022/03/21 03:11:20;;;;;;;23.08;18.15;;;4.30;99.90;;;;;;5094962;27;20046;-66
2022/03/21 03:13:46;;;;;;;23.50;17.63;;;4.30;99.90;;;;;;5126471;27;20048;-66
2022/03/21 03:16:12;;;;;;;21.52;16.10;;;4.30;99.90;;;;;;5093099;27;20077;-67
2022/03/21 03:18:37;;;;;;;18.83;15.45;;;4.20;99.90;;;;;;5094602;27;20060;-67
2022/03/21 03:21:03;;;;;;;18.85;12.93;;;4.20;99.90;;;;;;5126049;27;20078;-67
2022/03/21 03:23:31;;;;;;;18.58;14.52;;;4.20;99.90;;;;;;5099622;28;20043;-67
2022/03/21 03:26:02;;;;;;;16.33;12.75;;;4.20;99.90;;;;;;5093838;27;20040;-66
2022/03/21 03:28:29;;;;;;;17.02;13.63;;;4.20;99.90;;;;;;5092933;27;20139;-67
2022/03/21 03:30:55;;;;;;;21.67;14.07;;;4.20;99.90;;;;;;5104361;28;20053;-67
2022/03/21 03:33:22;;;;;;;19.60;14.77;;;4.20;99.90;;;;;;5083849;28;20036;-67
2022/03/21 03:35:48;;;;;;;19.33;12.82;;;4.20;99.90;;;;;;5100895;28;20036;-67
2022/03/21 03:38:15;;;;;;;18.10;12.57;;;4.10;99.90;;;;;;5098291;28;20478;-66
2022/03/21 03:40:43;;;;;;;19.30;13.60;;;4.10;99.90;;;;;;5101359;27;20040;-67
2022/03/21 03:43:10;;;;;;;19.65;14.45;;;4.10;99.90;;;;;;5100128;28;20040;-66
2022/03/21 03:45:36;;;;;;;22.48;14.88;;;4.00;99.90;;;;;;5132128;27;20036;-66
2022/03/21 03:48:02;;;;;;;18.95;12.20;;;4.00;99.90;;;;;;5094657;28;20047;-66
2022/03/21 03:50:28;;;;;;;19.58;14.32;;;4.00;99.90;;;;;;5091603;27;21014;-66
2022/03/21 03:52:53;;;;;;;18.55;13.18;;;3.90;99.90;;;;;;5092477;27;20123;-66
2022/03/21 03:55:19;;;;;;;17.20;15.02;;;3.90;99.90;;;;;;5126099;27;20039;-67
2022/03/21 03:57:46;;;;;;;18.10;14.55;;;3.80;99.90;;;;;;5094656;27;20067;-66
2022/03/21 04:00:14;;;;;;;12.75;11.25;;;3.80;99.90;;;;;;5093351;27;20104;-67
2022/03/21 04:05:26;;;;;;;17.83;12.13;;;3.70;99.90;;;;;;5095401;27;20485;-66
2022/03/21 04:07:52;;;;;;;17.75;13.73;;;3.70;99.90;;;;;;5091867;28;20109;-66
2022/03/21 04:10:20;;;;;;;22.95;16.10;;;3.60;99.90;;;;;;5091485;28;20039;-66
2022/03/21 04:12:47;;;;;;;20.02;12.98;;;3.60;99.90;;;;;;5092553;27;20075;-66
2022/03/21 04:15:13;;;;;;;17.10;13.43;;;3.50;99.90;;;;;;5094614;27;20140;-66
2022/03/21 04:17:39;;;;;;;20.10;13.38;;;3.60;99.90;;;;;;5096129;27;20051;-66
2022/03/21 04:20:06;;;;;;;22.23;14.27;;;3.50;99.90;;;;;;5091503;27;20393;-66
2022/03/21 04:22:34;;;;;;;25.15;15.80;;;3.50;99.90;;;;;;5093063;27;21833;-66
2022/03/21 04:25:00;;;;;;;27.85;17.55;;;3.50;99.90;;;;;;5092167;28;20401;-67
2022/03/21 04:27:26;;;;;;;25.65;16.02;;;3.60;99.90;;;;;;5093042;27;20032;-66
2022/03/21 04:29:51;;;;;;;22.75;15.07;;;3.60;99.90;;;;;;5093829;27;22110;-67
2022/03/21 04:32:17;;;;;;;22.98;14.90;;;3.50;99.90;;;;;;5090764;27;20595;-66
2022/03/21 04:34:43;;;;;;;25.65;15.50;;;3.60;99.90;;;;;;5091132;27;20494;-66
2022/03/21 04:37:08;;;;;;;18.83;13.98;;;3.60;99.90;;;;;;5090859;27;20039;-66
2022/03/21 04:39:34;;;;;;;20.42;15.07;;;3.50;99.90;;;;;;5090460;27;20032;-66
2022/03/21 04:42:00;;;;;;;17.80;14.23;;;3.50;99.90;;;;;;5092195;28;20126;-66
2022/03/21 04:44:26;;;;;;;18.48;14.35;;;3.60;99.90;;;;;;5094323;27;20139;-66
2022/03/21 04:46:52;;;;;;;22.33;14.57;;;3.50;99.90;;;;;;5122157;27;20085;-66
2022/03/21 04:49:18;;;;;;;23.13;18.40;;;3.50;99.90;;;;;;5093423;28;20126;-67
2022/03/21 04:51:44;;;;;;;20.15;15.55;;;3.40;99.90;;;;;;5099447;27;20032;-66
2022/03/21 04:54:09;;;;;;;30.65;19.15;;;3.40;99.90;;;;;;5095674;27;20038;-66
2022/03/21 04:56:35;;;;;;;21.30;15.23;;;3.30;99.90;;;;;;5097097;28;20074;-66
2022/03/21 04:59:01;;;;;;;21.83;17.30;;;3.30;99.90;;;;;;5098617;28;20042;-66
2022/03/21 05:01:26;;;;;;;25.77;17.80;;;3.20;99.90;;;;;;5096444;28;20433;-66
2022/03/21 05:03:53;;;;;;;26.05;21.08;;;3.20;99.90;;;;;;5125685;27;21826;-66
2022/03/21 05:06:19;;;;;;;23.52;15.48;;;3.20;99.90;;;;;;5096268;27;20048;-66
2022/03/21 05:08:44;;;;;;;28.13;18.52;;;3.20;99.90;;;;;;5095587;28;20119;-66
2022/03/21 05:11:10;;;;;;;22.25;16.90;;;3.30;99.90;;;;;;5098480;28;20122;-66
2022/03/21 05:13:37;;;;;;;22.63;15.77;;;3.10;99.90;;;;;;5096368;28;20059;-66
2022/03/21 05:16:05;;;;;;;34.42;25.73;;;3.10;99.90;;;;;;5095194;27;20048;-66
2022/03/21 05:18:34;;;;;;;28.20;21.15;;;3.00;99.90;;;;;;5094790;27;20047;-66
2022/03/21 05:21:06;;;;;;;30.65;23.33;;;3.00;99.90;;;;;;5097624;28;20047;-66
2022/03/21 05:31:56;;;;;;;108.13;16.30;;;2.80;99.90;;;;;;5066577;28;20055;-66
2022/03/21 05:37:06;;;;;;;16.15;9.05;;;2.70;99.90;;;;;;5097675;28;20490;-66
2022/03/21 05:39:32;;;;;;;28.27;8.80;;;2.60;99.90;;;;;;5096464;28;20035;-66
2022/03/21 05:41:58;;;;;;;11.68;7.75;;;2.60;99.90;;;;;;5095875;28;20044;-66
2022/03/21 05:44:24;;;;;;;18.10;13.40;;;2.60;99.90;;;;;;5100385;28;20043;-66
2022/03/21 05:46:50;;;;;;;16.33;12.32;;;2.60;99.90;;;;;;5096112;28;20126;-66
2022/03/21 05:49:16;;;;;;;20.02;16.27;;;2.60;99.90;;;;;;5103737;28;20107;-66
2022/03/21 05:51:41;;;;;;;19.15;14.13;;;2.60;99.90;;;;;;5101635;28;20048;-66
2022/03/21 05:54:10;;;;;;;17.73;11.13;;;2.50;99.90;;;;;;5125504;27;20047;-66
2022/03/21 05:56:37;;;;;;;13.35;10.70;;;2.60;99.90;;;;;;5090405;28;20036;-66
2022/03/21 06:01:50;;;;;;;15.32;10.48;;;2.90;99.90;;;;;;5093905;28;20048;-66
2022/03/21 06:04:16;;;;;;;26.58;15.50;;;3.20;99.90;;;;;;5121302;27;20047;-66
2022/03/21 06:06:43;;;;;;;20.38;13.40;;;3.50;99.90;;;;;;5090590;28;20043;-66
2022/03/21 06:09:08;;;;;;;19.33;13.57;;;3.70;99.90;;;;;;5092160;28;20040;-66
2022/03/21 06:11:36;;;;;;;18.13;12.73;;;4.20;99.90;;;;;;5094264;28;20053;-66
2022/03/21 06:14:04;;;;;;;12.93;11.35;;;4.70;99.90;;;;;;5095289;28;20468;-66
2022/03/21 06:16:31;;;;;;;12.60;10.05;;;5.30;99.90;;;;;;5094381;28;20043;-66
2022/03/21 06:18:59;;;;;;;12.18;8.73;;;6.20;99.90;;;;;;5098560;28;20768;-66
2022/03/21 06:21:25;;;;;;;16.83;12.40;;;7.10;99.90;;;;;;5093280;28;20485;-66
2022/03/21 06:23:52;;;;;;;14.02;11.18;;;8.10;99.90;;;;;;5096111;28;20685;-66
2022/03/21 06:26:17;;;;;;;19.92;12.45;;;9.10;99.90;;;;;;5127555;27;20482;-67
2022/03/21 06:28:43;;;;;;;16.33;11.23;;;10.10;99.90;;;;;;5100341;27;20065;-66
2022/03/21 06:31:09;;;;;;;12.65;9.98;;;11.00;99.90;;;;;;5099334;28;20390;-67
2022/03/21 06:33:35;;;;;;;14.10;9.45;;;11.90;99.90;;;;;;5101104;27;20085;-67
2022/03/21 06:36:02;;;;;;;13.13;10.18;;;12.70;99.90;;;;;;5100463;28;20039;-67
2022/03/21 06:38:28;;;;;;;14.13;9.75;;;13.50;95.40;;;;;;5096817;28;20051;-67
2022/03/21 06:40:55;;;;;;;11.15;8.60;;;14.40;91.40;;;;;;5097080;27;20031;-67
2022/03/21 06:43:22;;;;;;;11.68;8.15;;;15.20;85.90;;;;;;5098034;28;20036;-67
2022/03/21 06:45:51;;;;;;;6.82;6.10;;;16.00;80.90;;;;;;5098432;27;20462;-67
2022/03/21 06:48:17;;;;;;;6.07;5.47;;;16.80;76.20;;;;;;5099419;28;20398;-67
2022/03/21 06:50:46;;;;;;;6.75;6.15;;;17.50;71.00;;;;;;5081983;28;20035;-67
2022/03/21 06:53:13;;;;;;;6.22;5.45;;;18.20;68.10;;;;;;5129524;27;20086;-67
2022/03/21 06:55:39;;;;;;;10.85;5.60;;;18.90;63.80;;;;;;5100162;27;20473;-67
2022/03/21 06:58:06;;;;;;;8.35;5.43;;;19.60;62.00;;;;;;5096920;27;20081;-67
2022/03/21 07:00:32;;;;;;;6.85;5.40;;;20.30;59.10;;;;;;5128061;27;20435;-68
2022/03/21 07:02:57;;;;;;;8.15;6.32;;;20.80;57.20;;;;;;5096444;28;20038;-68
2022/03/21 07:05:26;;;;;;;8.55;6.55;;;20.90;55.20;;;;;;5129202;27;20035;-67
2022/03/21 07:07:52;;;;;;;7.45;6.75;;;20.80;54.60;;;;;;5095924;28;20070;-68
2022/03/21 07:10:18;;;;;;;8.43;6.10;;;20.80;55.00;;;;;;5127432;27;20046;-68
2022/03/21 07:12:43;;;;;;;7.55;6.53;;;20.90;55.00;;;;;;5085863;27;20390;-68
2022/03/21 07:15:09;;;;;;;10.85;7.50;;;21.00;54.10;;;;;;5088036;27;20222;-68
2022/03/21 07:17:35;;;;;;;9.68;8.20;;;21.00;54.50;;;;;;5083118;27;20032;-68
2022/03/21 07:20:01;;;;;;;8.52;7.57;;;20.60;55.20;;;;;;5083138;27;20051;-67
2022/03/21 07:22:26;;;;;;;18.20;8.57;;;20.10;56.70;;;;;;5113023;27;20050;-67
2022/03/21 07:24:52;;;;;;;11.13;9.60;;;19.60;56.80;;;;;;5081760;27;20046;-67
2022/03/21 07:27:20;;;;;;;12.73;10.10;;;19.30;57.80;;;;;;5080974;27;20081;-66
2022/03/21 07:29:45;;;;;;;14.95;10.23;;;18.60;58.90;;;;;;5092595;27;20622;-67
2022/03/21 07:32:11;;;;;;;13.45;10.07;;;18.10;60.10;;;;;;5098620;28;20039;-66
2022/03/21 07:34:36;;;;;;;11.65;10.45;;;17.80;60.70;;;;;;5097358;28;20597;-66
2022/03/21 07:37:02;;;;;;;13.77;9.82;;;17.60;61.00;;;;;;5097989;28;20036;-66
2022/03/21 07:39:29;;;;;;;13.98;10.98;;;17.40;62.30;;;;;;5100654;28;20042;-66
2022/03/21 07:42:00;;;;;;;12.35;9.02;;;17.20;62.50;;;;;;5097338;28;20032;-66
2022/03/21 07:47:17;;;;;;;13.98;11.05;;;15.90;65.50;;;;;;5093360;28;20052;-66
2022/03/21 07:49:46;;;;;;;12.00;10.52;;;15.00;69.00;;;;;;5083029;27;21041;-66
2022/03/21 07:52:17;;;;;;;12.70;10.20;;;14.30;71.10;;;;;;5079853;27;20058;-66
2022/03/21 07:54:43;;;;;;;13.48;10.15;;;13.70;73.70;;;;;;5087517;27;20040;-66
2022/03/21 07:57:08;;;;;;;11.20;10.05;;;13.40;76.80;;;;;;5082485;27;20067;-66
2022/03/21 07:59:35;;;;;;;14.30;10.45;;;13.20;80.00;;;;;;5083032;27;20035;-66
2022/03/21 08:02:03;;;;;;;16.05;11.02;;;13.00;82.10;;;;;;5085045;27;20044;-66
2022/03/21 08:04:31;;;;;;;17.25;12.30;;;12.90;83.80;;;;;;5081455;28;20054;-66
2022/03/21 08:06:58;;;;;;;18.40;12.13;;;12.70;85.30;;;;;;5081698;28;20086;-66
2022/03/21 08:09:24;;;;;;;17.60;14.25;;;12.50;84.80;;;;;;5080822;28;21084;-66
2022/03/21 08:11:50;;;;;;;20.95;14.35;;;12.20;87.80;;;;;;5081710;27;20039;-66
2022/03/21 08:14:17;;;;;;;17.38;13.52;;;11.90;90.00;;;;;;5085247;27;20168;-66
2022/03/21 08:16:43;;;;;;;17.13;14.00;;;11.80;91.10;;;;;;5078942;27;20039;-66
2022/03/21 08:19:09;;;;;;;18.25;15.80;;;11.70;92.60;;;;;;5079970;27;20125;-66
2022/03/21 08:21:35;;;;;;;17.88;15.75;;;11.60;93.90;;;;;;5079415;28;20055;-66
2022/03/21 08:24:00;;;;;;;18.85;14.25;;;11.50;95.00;;;;;;5086435;27;20048;-66
2022/03/21 08:26:27;;;;;;;18.40;15.13;;;11.60;95.50;;;;;;5083802;27;20043;-66
2022/03/21 08:28:52;;;;;;;20.20;14.68;;;11.50;95.50;;;;;;5088727;27;20044;-66
2022/03/21 08:31:18;;;;;;;25.80;15.90;;;11.30;97.90;;;;;;5087188;28;20040;-66
2022/03/21 08:33:44;;;;;;;21.60;15.05;;;11.30;98.50;;;;;;5088736;27;20047;-66
2022/03/21 08:36:11;;;;;;;19.05;15.13;;;11.40;99.90;;;;;;5083903;27;20051;-66
2022/03/21 08:38:37;;;;;;;20.17;13.68;;;11.40;98.20;;;;;;5082065;27;20039;-66
2022/03/21 08:41:02;;;;;;;19.90;14.05;;;11.30;99.80;;;;;;5084488;27;20039;-66
2022/03/21 08:43:28;;;;;;;20.70;14.38;;;11.40;99.90;;;;;;5084083;27;20075;-66
2022/03/21 08:45:55;;;;;;;18.92;14.30;;;11.50;97.90;;;;;;5083171;27;20410;-66
2022/03/21 08:49:23;;;;;;;22.27;15.13;;;11.50;96.40;;;;;;5081310;27;20385;-66
2022/03/21 08:51:06;;;;;;;18.50;14.18;;;11.50;97.60;;;;;;5083725;27;20052;-66
2022/03/21 08:53:32;;;;;;;22.20;14.35;;;11.60;98.20;;;;;;5084041;27;20703;-66
2022/03/21 08:55:59;;;;;;;18.30;13.93;;;11.80;99.50;;;;;;5080535;27;20040;-66
2022/03/21 08:58:25;;;;;;;24.15;15.15;;;12.00;97.20;;;;;;5081164;27;20105;-66
2022/03/21 09:00:51;;;;;;;17.88;14.43;;;12.10;98.20;;;;;;5082423;28;20032;-66
2022/03/21 09:03:16;;;;;;;18.58;14.15;;;12.20;96.80;;;;;;5115477;27;20088;-66
2022/03/21 09:05:43;;;;;;;21.42;13.73;;;12.40;96.60;;;;;;5079276;28;20048;-66
2022/03/21 09:08:09;;;;;;;17.30;12.38;;;12.50;93.60;;;;;;5082888;27;20130;-66
2022/03/21 09:10:35;;;;;;;16.08;13.02;;;12.60;93.70;;;;;;5081771;27;20101;-66
2022/03/21 09:13:01;;;;;;;18.20;13.20;;;12.80;93.80;;;;;;5083583;28;20202;-66
2022/03/21 09:15:26;;;;;;;18.13;13.15;;;12.90;94.10;;;;;;5085184;27;20036;-66
2022/03/21 09:17:52;;;;;;;20.60;13.95;;;13.10;94.40;;;;;;5087985;28;20047;-66
2022/03/21 09:20:18;;;;;;;17.52;13.40;;;13.20;92.70;;;;;;5087312;28;20039;-66
2022/03/21 09:22:43;;;;;;;21.50;13.77;;;13.30;93.30;;;;;;5081997;28;20038;-66
2022/03/21 09:25:09;;;;;;;18.67;13.63;;;13.50;92.70;;;;;;5112324;27;20150;-66
2022/03/21 09:27:38;;;;;;;17.13;13.93;;;13.60;92.50;;;;;;5080890;28;20074;-66
2022/03/21 09:30:06;;;;;;;17.75;12.98;;;13.80;90.90;;;;;;5095114;28;20071;-66
2022/03/21 09:32:32;;;;;;;20.95;13.27;;;14.00;90.90;;;;;;5097576;28;20055;-66
2022/03/21 09:34:58;;;;;;;19.58;13.63;;;14.20;88.10;;;;;;5097427;28;20059;-66
2022/03/21 09:37:24;;;;;;;19.55;15.00;;;14.20;83.90;;;;;;5127043;27;20071;-66
2022/03/21 09:39:50;;;;;;;17.75;13.43;;;14.10;82.40;;;;;;5100042;28;20490;-66
2022/03/21 09:42:16;;;;;;;18.05;14.15;;;14.20;84.40;;;;;;5093383;28;20043;-66
2022/03/21 09:44:42;;;;;;;18.52;14.40;;;14.30;82.50;;;;;;5097096;28;20047;-66
2022/03/21 09:49:58;;;;;;;16.27;14.43;;;14.30;84.20;;;;;;5081705;28;20056;-66
2022/03/21 09:52:24;;;;;;;20.17;14.98;;;14.40;82.80;;;;;;5113828;27;20044;-66
2022/03/21 09:54:51;;;;;;;23.88;15.23;;;14.50;83.00;;;;;;5083484;28;20073;-66
2022/03/21 09:57:18;;;;;;;22.90;15.52;;;14.70;82.50;;;;;;5112852;27;20093;-66
2022/03/21 09:59:44;;;;;;;27.25;15.68;;;14.80;79.10;;;;;;5083523;27;20032;-66
2022/03/21 10:02:17;;;;;;;24.63;16.45;;;14.80;78.20;;;;;;5084885;27;20044;-66
2022/03/21 10:04:43;;;;;;;21.42;15.50;;;14.90;79.60;;;;;;5084911;27;22032;-66
2022/03/21 10:07:10;;;;;;;26.13;16.42;;;15.10;80.10;;;;;;5085647;27;20526;-66
2022/03/21 10:09:36;;;;;;;21.60;16.70;;;15.30;74.30;;;;;;5119812;27;20087;-66
2022/03/21 10:12:08;;;;;;;22.50;16.15;;;15.30;76.00;;;;;;5085987;27;20040;-66
2022/03/21 10:14:39;;;;;;;20.58;16.65;;;15.40;75.40;;;;;;5116880;27;20600;-66
2022/03/21 10:17:09;;;;;;;20.85;17.00;;;15.50;73.60;;;;;;5084891;27;20447;-67
2022/03/21 10:19:46;;;;;;;23.38;16.63;;;15.40;74.50;;;;;;5086773;27;20048;-66
2022/03/21 10:22:15;;;;;;;19.67;17.42;;;15.40;74.70;;;;;;5083360;27;20039;-66
2022/03/21 10:24:43;;;;;;;20.95;15.30;;;15.30;75.30;;;;;;5087294;28;20939;-66
2022/03/21 10:27:29;;;;;;;23.85;16.40;;;15.40;71.60;;;;;;5049250;28;20040;-66
2022/03/21 10:30:00;;;;;;;24.42;15.43;;;15.40;73.30;;;;;;5084041;27;20135;-66
2022/03/21 10:32:34;;;;;;;18.77;16.42;;;15.50;74.00;;;;;;5116860;27;20561;-66
2022/03/21 10:35:07;;;;;;;19.80;15.63;;;15.70;72.40;;;;;;5086700;28;20040;-66
2022/03/21 10:37:48;;;;;;;21.33;17.02;;;15.90;71.70;;;;;;5086480;27;20489;-66
2022/03/21 10:40:30;;;;;;;19.52;16.00;;;16.10;73.50;;;;;;5067193;27;20036;-66
2022/03/21 10:43:07;;;;;;;20.00;16.15;;;16.30;69.20;;;;;;5084701;27;20043;-66
2022/03/21 10:45:42;;;;;;;24.60;15.93;;;16.40;67.10;;;;;;5084252;27;20051;-66
2022/03/21 10:48:11;;;;;;;18.13;14.40;;;16.40;66.90;;;;;;5101799;27;20052;-66
2022/03/21 10:50:46;;;;;;;23.75;16.17;;;16.40;67.50;;;;;;5086269;27;20055;-66
2022/03/21 10:53:13;;;;;;;;;;;16.60;64.20;;;;;;5089125;28;20047;-66
2022/03/21 10:55:42;;;;;;;25.25;16.90;;;16.50;64.20;;;;;;5117601;27;19924;-67
2022/03/21 10:58:09;;;;;;;27.60;17.02;;;16.40;63.70;;;;;;5084226;27;20052;-67
2022/03/21 11:00:35;;;;;;;19.20;16.25;;;16.40;65.90;;;;;;5085374;27;20110;-67
2022/03/21 11:03:09;;;;;;;21.08;16.42;;;16.50;65.60;;;;;;5086617;27;20051;-67
2022/03/21 11:05:39;;;;;;;25.13;17.30;;;16.80;64.30;;;;;;5084169;27;20051;-67
2022/03/21 11:08:08;;;;;;;22.60;16.90;;;16.80;64.90;;;;;;5085719;27;20040;-67
2022/03/21 11:10:34;;;;;;;19.15;16.20;;;16.70;63.50;;;;;;5086845;27;20118;-66
2022/03/21 11:13:02;;;;;;;17.60;15.80;;;16.50;63.70;;;;;;5099297;27;20040;-67
2022/03/21 11:15:31;;;;;;;18.58;15.27;;;16.40;62.90;;;;;;5088766;27;20120;-67
2022/03/21 11:17:57;;;;;;;21.98;16.45;;;16.50;63.80;;;;;;5089861;27;20331;-67
2022/03/21 11:20:24;;;;;;;21.77;16.92;;;16.50;64.00;;;;;;5084623;27;20070;-67
2022/03/21 11:22:52;;;;;;;20.45;15.52;;;16.60;64.40;;;;;;5084055;28;20043;-67
2022/03/21 11:25:18;;;;;;;22.00;17.33;;;16.60;65.60;;;;;;5082437;28;20040;-67
2022/03/21 11:28:05;;;;;;;20.98;16.05;;;16.90;66.40;;;;;;5081167;28;20508;-67
2022/03/21 11:30:39;;;;;;;19.23;16.15;;;17.10;65.00;;;;;;5099251;28;20039;-67
2022/03/21 11:33:14;;;;;;;21.03;15.03;;;17.40;61.00;;;;;;5100118;28;20039;-67
2022/03/21 11:35:49;;;;;;;20.10;16.60;;;17.50;61.90;;;;;;5097420;28;21429;-67
2022/03/21 11:38:21;;;;;;;19.60;16.17;;;17.10;60.90;;;;;;5099203;28;20028;-67
2022/03/21 11:40:47;;;;;;;21.38;15.20;;;16.90;61.00;;;;;;5100388;28;20047;-66
2022/03/21 11:43:19;;;;;;;17.83;15.50;;;17.00;61.30;;;;;;5096320;28;20164;-67
2022/03/21 11:45:57;;;;;;;20.08;16.98;;;16.90;60.00;;;;;;5098484;28;20047;-67
2022/03/21 11:48:22;;;;;;;19.25;16.17;;;16.90;61.90;;;;;;5131413;27;20127;-67
2022/03/21 11:50:51;;;;;;;22.23;17.38;;;16.90;61.80;;;;;;5095266;28;20138;-67
2022/03/21 11:53:27;;;;;;;21.27;16.15;;;16.70;60.10;;;;;;5097509;27;20040;-67
2022/03/21 11:55:53;;;;;;;20.67;15.52;;;16.50;60.10;;;;;;5084860;27;20633;-67
2022/03/21 11:58:22;;;;;;;19.90;15.63;;;16.30;60.60;;;;;;5082581;27;20040;-67
2022/03/21 12:01:05;;;;;;;24.52;16.67;;;16.20;60.30;;;;;;5081859;27;20044;-67
2022/03/21 12:03:31;;;;;;;20.52;16.02;;;16.20;61.40;;;;;;5084785;27;20024;-67
2022/03/21 12:05:57;;;;;;;21.42;16.50;;;16.30;61.90;;;;;;5082510;27;20036;-67
2022/03/21 12:08:34;;;;;;;18.05;15.95;;;16.40;61.70;;;;;;5116752;27;20177;-66
2022/03/21 12:11:00;;;;;;;21.88;16.40;;;16.30;62.50;;;;;;5084123;27;20051;-67
2022/03/21 12:13:40;;;;;;;22.20;16.17;;;16.30;62.80;;;;;;5098971;27;20046;-67
2022/03/21 12:16:17;;;;;;;21.55;15.63;;;16.50;61.90;;;;;;5082563;28;20039;-67
2022/03/21 12:19:00;;;;;;;21.45;15.85;;;16.70;61.20;;;;;;5083186;28;20047;-66
2022/03/21 12:21:25;;;;;;;24.73;16.15;;;17.00;61.00;;;;;;5085811;28;20071;-67
2022/03/21 12:24:14;;;;;;;18.70;16.73;;;17.10;60.50;;;;;;5086713;27;20039;-67
2022/03/21 12:26:51;;;;;;;21.95;16.88;;;17.10;60.40;;;;;;5085101;27;20374;-67
2022/03/21 12:29:33;;;;;;;20.10;16.13;;;17.00;60.00;;;;;;5084928;27;20058;-67
2022/03/21 12:32:25;;;;;;;28.40;15.35;;;17.00;59.80;;;;;;5083653;27;20047;-67
2022/03/21 12:34:54;;;;;;;19.10;14.77;;;17.10;60.10;;;;;;5084416;27;20035;-67
2022/03/21 12:37:31;;;;;;;21.17;14.00;;;17.10;57.50;;;;;;5084745;28;20074;-67
2022/03/21 12:39:59;;;;;;;20.40;14.93;;;17.20;56.30;;;;;;5087311;28;20035;-67
2022/03/21 12:42:27;;;;;;;20.60;14.65;;;17.30;58.10;;;;;;5082934;27;20048;-67
2022/03/21 12:44:54;;;;;;;22.17;14.73;;;17.30;58.80;;;;;;5084568;28;21601;-67
2022/03/21 12:47:21;;;;;;;19.25;14.95;;;17.50;59.40;;;;;;5084130;27;20075;-67
2022/03/21 12:49:54;;;;;;;21.65;15.65;;;17.60;58.50;;;;;;5081747;28;20503;-67
2022/03/21 12:52:31;;;;;;;24.63;16.20;;;17.60;56.60;;;;;;5086264;27;20375;-66
2022/03/21 12:54:57;;;;;;;25.77;16.67;;;17.50;58.60;;;;;;5084577;28;20036;-67
2022/03/21 12:57:23;;;;;;;22.38;15.52;;;17.40;58.90;;;;;;5080949;28;20053;-67
2022/03/21 12:59:49;;;;;;;19.90;14.57;;;17.60;55.90;;;;;;5084472;28;20031;-67
2022/03/21 13:02:27;;;;;;;24.02;15.07;;;17.60;55.40;;;;;;5081768;28;20350;-67